Antonios — SY8410 — position and weather

sailwx.info

Track history (hours):
 
Tides and Currents Weather Stations Pressure Air Temp Water Temp Dewpoint Dewpoint Depression Visibility Wind Speed Wind Dir Waves Ship Positions

Antonios

Last reported at 2014-Aug-26 16:20 UTC. Time now 2014-Aug-27 15:09 UTC.
Position N 36°55' E 027°08'.

Length 57 m; draft 2.9 m.

Type: Tanker. MMSI: 239191300.

Date/timePositionNaut miles runAvg speedWind from/ knotsBaromVisibWave heightAir tempDewpointWater temp
2014-Aug-26 16:20N 36°55' E 027°08'7 9.0
2014-Aug-26 15:32N 36°55' E 027°17'2 1.7
2014-Aug-26 14:33N 36°54' E 027°18'17 0.4
2014-Aug-24 14:33N 36°55' E 026°57'1010.4
2014-Aug-24 13:33N 36°59' E 026°44'1010.3
2014-Aug-24 12:33N 37°01' E 026°31'1110.6
2014-Aug-24 11:32N 37°05' E 026°19'1010.4
2014-Aug-24 10:33N 37°07' E 026°06'1110.9
2014-Aug-24 09:33N 37°10' E 025°53'1110.9
2014-Aug-24 08:34N 37°12' E 025°40'1110.6
2014-Aug-24 07:33N 37°14' E 025°27'1010.3
2014-Aug-24 06:33N 37°17' E 025°14'1010.1
2014-Aug-24 05:34N 37°19' E 025°02'1010.1
2014-Aug-24 04:33N 37°21' E 024°49'1010.2
2014-Aug-24 03:33N 37°26' E 024°38'10 9.8
2014-Aug-24 02:33N 37°30' E 024°27'3310.6
2014-Aug-23 23:27N 37°39' E 023°47'9 9.7
2014-Aug-23 22:33N 37°45' E 023°39'10 9.8
2014-Aug-23 21:33N 37°50' E 023°28'1110.3
2014-Aug-23 20:32N 37°53' E 023°15'8 8.3
2014-Aug-23 19:32N 37°55' E 023°05'62 3.9
2014-Aug-23 03:33N 37°15' E 024°05'1611.3
2014-Aug-23 02:07N 37°04' E 024°21'611.3
2014-Aug-23 01:33N 36°60' E 024°27'1111.0
2014-Aug-23 00:33N 36°53' E 024°37'1110.7
2014-Aug-22 23:33N 36°46' E 024°47'1110.8
2014-Aug-22 22:33N 36°38' E 024°57'1110.8
2014-Aug-22 21:33N 36°33' E 025°08'1110.8
2014-Aug-22 20:33N 36°28' E 025°21'7 6.6
2014-Aug-22 19:33N 36°23' E 025°26'0 0.0
2014-Aug-22 18:33N 36°23' E 025°26'0 0.0
2014-Aug-22 17:33N 36°23' E 025°26'0 0.0
2014-Aug-22 16:33N 36°23' E 025°26'0 0.0
2014-Aug-22 15:33N 36°23' E 025°26'0 0.0
2014-Aug-22 14:33N 36°23' E 025°26'0 0.0
2014-Aug-22 13:33N 36°23' E 025°26'1 1.0
2014-Aug-22 12:33N 36°23' E 025°25'1 1.1
2014-Aug-22 11:33N 36°24' E 025°23'0 0.0
2014-Aug-22 10:33N 36°24' E 025°23'0 0.0
2014-Aug-22 09:33N 36°24' E 025°23'0 0.0
2014-Aug-22 08:33N 36°24' E 025°23'0 0.3
2014-Aug-22 07:33N 36°23' E 025°24'6 5.8
2014-Aug-22 06:33N 36°29' E 025°22'1010.2
2014-Aug-22 05:33N 36°33' E 025°34'1110.6
2014-Aug-22 04:33N 36°36' E 025°46'1010.1
2014-Aug-22 03:33N 36°39' E 025°58'1010.2
2014-Aug-22 02:33N 36°42' E 026°10'1110.6
2014-Aug-22 01:33N 36°46' E 026°23'1010.4
2014-Aug-22 00:33N 36°49' E 026°35'1010.1
2014-Aug-21 23:33N 36°52' E 026°47'12 0.6
2014-Aug-21 03:31N 36°57' E 027°01'2 0.2
2014-Aug-20 19:19N 36°55' E 026°60'810.4
2014-Aug-20 18:33N 36°48' E 026°56'8 8.2
2014-Aug-20 17:33N 36°40' E 026°58'1 0.3
2014-Aug-20 12:34N 36°40' E 026°57'10 9.4
2014-Aug-20 11:28N 36°51' E 026°57'40 0.8
2014-Aug-18 10:23N 36°55' E 026°08'16 9.0
2014-Aug-18 08:33N 36°46' E 025°50'9 9.1
2014-Aug-18 07:33N 36°47' E 025°39'10 9.5
2014-Aug-18 06:28N 36°53' E 025°29'9 9.2
2014-Aug-18 05:33N 36°60' E 025°21'7 6.8
2014-Aug-18 04:33N 37°06' E 025°22'0 0.0
2014-Aug-18 03:33N 37°06' E 025°22'0 0.0
2014-Aug-18 02:33N 37°06' E 025°22'0 0.0
2014-Aug-18 01:32N 37°06' E 025°22'0 0.0
2014-Aug-18 00:33N 37°06' E 025°22'51 8.5
2014-Aug-17 18:33N 37°30' E 024°25'10 9.3
2014-Aug-17 17:30N 37°32' E 024°13'2210.3
2014-Aug-17 15:22N 37°39' E 023°47'8 9.9
2014-Aug-17 14:33N 37°44' E 023°40'10 9.6
2014-Aug-17 13:33N 37°50' E 023°30'20 9.7
2014-Aug-17 11:31N 37°55' E 023°05'0 0.0
2014-Aug-17 10:33N 37°55' E 023°05'0 0.0
2014-Aug-17 09:22N 37°55' E 023°05'0 0.0
2014-Aug-17 08:31N 37°55' E 023°05'0 0.0
2014-Aug-17 07:31N 37°55' E 023°05'0 0.0
2014-Aug-17 06:33N 37°55' E 023°05'0 0.0
2014-Aug-17 05:33N 37°55' E 023°05'0 0.0
2014-Aug-17 04:33N 37°55' E 023°05'0 0.0
2014-Aug-17 03:31N 37°55' E 023°05'4 3.2
2014-Aug-17 02:11N 37°54' E 023°10'7 9.7
2014-Aug-17 01:29N 37°52' E 023°19'910.3
2014-Aug-17 00:33N 37°50' E 023°31'9 8.7
2014-Aug-16 23:33N 37°47' E 023°41'9 9.4
2014-Aug-16 22:33N 37°40' E 023°48'11 9.5
2014-Aug-16 21:23N 37°35' E 024°01'8 9.8
2014-Aug-16 20:33N 37°32' E 024°11'11 9.3
2014-Aug-16 19:23N 37°30' E 024°24'6 7.4
2014-Aug-16 18:33N 37°28' E 024°31'11 7.7
2014-Aug-16 17:11N 37°23' E 024°43'5 7.2
2014-Aug-16 16:32N 37°22' E 024°49'  
Track history (hours):
 
Tides and Currents Weather Stations Pressure Air Temp Water Temp Dewpoint Dewpoint Depression Visibility Wind Speed Wind Dir Waves Ship Positions

Antonios

Last reported at 2014-Aug-26 16:20 UTC. Time now 2014-Aug-27 15:09 UTC.
Position N 36°55' E 027°08'.

Length 57 m; draft 2.9 m.

Type: Tanker. MMSI: 239191300.

Date/timePositionNaut miles runAvg speedWind from/ knotsBaromVisibWave heightAir tempDewpointWater temp
2014-Aug-26 16:20N 36°55' E 027°08'7 9.0
2014-Aug-26 15:32N 36°55' E 027°17'2 1.7
2014-Aug-26 14:33N 36°54' E 027°18'17 0.4
2014-Aug-24 14:33N 36°55' E 026°57'1010.4
2014-Aug-24 13:33N 36°59' E 026°44'1010.3
2014-Aug-24 12:33N 37°01' E 026°31'1110.6
2014-Aug-24 11:32N 37°05' E 026°19'1010.4
2014-Aug-24 10:33N 37°07' E 026°06'1110.9
2014-Aug-24 09:33N 37°10' E 025°53'1110.9
2014-Aug-24 08:34N 37°12' E 025°40'1110.6
2014-Aug-24 07:33N 37°14' E 025°27'1010.3
2014-Aug-24 06:33N 37°17' E 025°14'1010.1
2014-Aug-24 05:34N 37°19' E 025°02'1010.1
2014-Aug-24 04:33N 37°21' E 024°49'1010.2
2014-Aug-24 03:33N 37°26' E 024°38'10 9.8
2014-Aug-24 02:33N 37°30' E 024°27'3310.6
2014-Aug-23 23:27N 37°39' E 023°47'9 9.7
2014-Aug-23 22:33N 37°45' E 023°39'10 9.8
2014-Aug-23 21:33N 37°50' E 023°28'1110.3
2014-Aug-23 20:32N 37°53' E 023°15'8 8.3
2014-Aug-23 19:32N 37°55' E 023°05'62 3.9
2014-Aug-23 03:33N 37°15' E 024°05'1611.3
2014-Aug-23 02:07N 37°04' E 024°21'611.3
2014-Aug-23 01:33N 36°60' E 024°27'1111.0
2014-Aug-23 00:33N 36°53' E 024°37'1110.7
2014-Aug-22 23:33N 36°46' E 024°47'1110.8
2014-Aug-22 22:33N 36°38' E 024°57'1110.8
2014-Aug-22 21:33N 36°33' E 025°08'1110.8
2014-Aug-22 20:33N 36°28' E 025°21'7 6.6
2014-Aug-22 19:33N 36°23' E 025°26'0 0.0
2014-Aug-22 18:33N 36°23' E 025°26'0 0.0
2014-Aug-22 17:33N 36°23' E 025°26'0 0.0
2014-Aug-22 16:33N 36°23' E 025°26'0 0.0
2014-Aug-22 15:33N 36°23' E 025°26'0 0.0
2014-Aug-22 14:33N 36°23' E 025°26'0 0.0
2014-Aug-22 13:33N 36°23' E 025°26'1 1.0
2014-Aug-22 12:33N 36°23' E 025°25'1 1.1
2014-Aug-22 11:33N 36°24' E 025°23'0 0.0
2014-Aug-22 10:33N 36°24' E 025°23'0 0.0
2014-Aug-22 09:33N 36°24' E 025°23'0 0.0
2014-Aug-22 08:33N 36°24' E 025°23'0 0.3
2014-Aug-22 07:33N 36°23' E 025°24'6 5.8
2014-Aug-22 06:33N 36°29' E 025°22'1010.2
2014-Aug-22 05:33N 36°33' E 025°34'1110.6
2014-Aug-22 04:33N 36°36' E 025°46'1010.1
2014-Aug-22 03:33N 36°39' E 025°58'1010.2
2014-Aug-22 02:33N 36°42' E 026°10'1110.6
2014-Aug-22 01:33N 36°46' E 026°23'1010.4
2014-Aug-22 00:33N 36°49' E 026°35'1010.1
2014-Aug-21 23:33N 36°52' E 026°47'12 0.6
2014-Aug-21 03:31N 36°57' E 027°01'2 0.2
2014-Aug-20 19:19N 36°55' E 026°60'810.4
2014-Aug-20 18:33N 36°48' E 026°56'8 8.2
2014-Aug-20 17:33N 36°40' E 026°58'1 0.3
2014-Aug-20 12:34N 36°40' E 026°57'10 9.4
2014-Aug-20 11:28N 36°51' E 026°57'40 0.8
2014-Aug-18 10:23N 36°55' E 026°08'16 9.0
2014-Aug-18 08:33N 36°46' E 025°50'9 9.1
2014-Aug-18 07:33N 36°47' E 025°39'10 9.5
2014-Aug-18 06:28N 36°53' E 025°29'9 9.2
2014-Aug-18 05:33N 36°60' E 025°21'7 6.8
2014-Aug-18 04:33N 37°06' E 025°22'0 0.0
2014-Aug-18 03:33N 37°06' E 025°22'0 0.0
2014-Aug-18 02:33N 37°06' E 025°22'0 0.0
2014-Aug-18 01:32N 37°06' E 025°22'0 0.0
2014-Aug-18 00:33N 37°06' E 025°22'51 8.5
2014-Aug-17 18:33N 37°30' E 024°25'10 9.3
2014-Aug-17 17:30N 37°32' E 024°13'2210.3
2014-Aug-17 15:22N 37°39' E 023°47'8 9.9
2014-Aug-17 14:33N 37°44' E 023°40'10 9.6
2014-Aug-17 13:33N 37°50' E 023°30'20 9.7
2014-Aug-17 11:31N 37°55' E 023°05'0 0.0
2014-Aug-17 10:33N 37°55' E 023°05'0 0.0
2014-Aug-17 09:22N 37°55' E 023°05'0 0.0
2014-Aug-17 08:31N 37°55' E 023°05'0 0.0
2014-Aug-17 07:31N 37°55' E 023°05'0 0.0
2014-Aug-17 06:33N 37°55' E 023°05'0 0.0
2014-Aug-17 05:33N 37°55' E 023°05'0 0.0
2014-Aug-17 04:33N 37°55' E 023°05'0 0.0
2014-Aug-17 03:31N 37°55' E 023°05'4 3.2
2014-Aug-17 02:11N 37°54' E 023°10'7 9.7
2014-Aug-17 01:29N 37°52' E 023°19'910.3
2014-Aug-17 00:33N 37°50' E 023°31'9 8.7
2014-Aug-16 23:33N 37°47' E 023°41'9 9.4
2014-Aug-16 22:33N 37°40' E 023°48'11 9.5
2014-Aug-16 21:23N 37°35' E 024°01'8 9.8
2014-Aug-16 20:33N 37°32' E 024°11'11 9.3
2014-Aug-16 19:23N 37°30' E 024°24'6 7.4
2014-Aug-16 18:33N 37°28' E 024°31'11 7.7
2014-Aug-16 17:11N 37°23' E 024°43'5 7.2
2014-Aug-16 16:32N 37°22' E 024°49'  

Dump ship's entire track history